Time;durP1;ratioP1;P1;durP2;ratioP2;P2;SDS_P1;SDS_P2;PMS_P1;PMS_P2;Temp;Humidity;BMP_temperature;BMP_pressure;BME280_temperature;BME280_humidity;BME280_pressure;Samples;Min_cycle;Max_cycle;Signal;HPM_P1;HPM_P2
2022/10/30 08:01:41;;;;;;;14.23;10.05;;;;;;;14.26;96.28;101474.31;5221598;27;1897084;-69
2022/10/30 08:04:13;;;;;;;12.23;8.23;;;;;;;14.31;96.21;101466.72;5285739;28;20036;-70
2022/10/30 08:06:44;;;;;;;12.20;7.63;;;;;;;14.32;96.79;101465.59;5293900;28;20031;-69
2022/10/30 08:09:15;;;;;;;15.18;8.77;;;;;;;14.33;96.50;101472.00;5294241;28;20051;-69
2022/10/30 08:11:46;;;;;;;15.15;8.05;;;;;;;14.44;96.42;101462.34;5281967;28;20044;-70
2022/10/30 08:14:18;;;;;;;14.65;8.52;;;;;;;14.48;96.46;101457.00;5298754;28;20387;-69
2022/10/30 08:16:49;;;;;;;12.05;7.82;;;;;;;14.59;95.95;101454.94;5289400;28;20036;-69
2022/10/30 08:19:21;;;;;;;12.73;8.32;;;;;;;14.60;96.44;101454.63;5291526;28;20028;-69
2022/10/30 08:21:52;;;;;;;10.90;7.22;;;;;;;14.62;95.61;101452.34;5289472;28;20083;-69
2022/10/30 08:24:23;;;;;;;11.38;7.90;;;;;;;14.68;95.58;101451.16;5284901;28;20036;-69
2022/10/30 08:26:55;;;;;;;9.88;7.38;;;;;;;14.76;95.62;101470.00;5290545;28;20086;-69
2022/10/30 08:29:26;;;;;;;14.35;7.78;;;;;;;14.83;95.44;101471.59;5288714;28;20091;-69
2022/10/30 08:31:57;;;;;;;12.05;9.55;;;;;;;14.84;94.47;101476.88;5285985;28;20024;-69
2022/10/30 08:34:31;;;;;;;12.02;7.72;;;;;;;14.91;94.37;101479.28;5292064;28;20032;-69
2022/10/30 08:37:06;;;;;;;13.50;8.43;;;;;;;14.97;94.00;101469.69;5291463;28;20028;-69
2022/10/30 08:39:37;;;;;;;;;;;;;;;15.10;93.63;101471.69;5292206;28;20106;-69
2022/10/30 08:42:09;;;;;;;9.73;7.27;;;;;;;15.06;93.42;101459.50;5286047;28;19932;-69
2022/10/30 08:44:46;;;;;;;12.90;7.50;;;;;;;15.09;93.96;101464.47;5287271;28;20282;-69
2022/10/30 08:47:17;;;;;;;11.43;7.07;;;;;;;15.12;93.83;101460.22;5285930;28;20039;-69
2022/10/30 08:49:48;;;;;;;12.75;7.95;;;;;;;15.16;92.88;101467.69;5279030;28;20036;-70
2022/10/30 08:52:20;;;;;;;11.85;7.95;;;;;;;15.17;92.37;101469.34;5286125;28;20028;-69
2022/10/30 08:54:51;;;;;;;10.73;7.50;;;;;;;15.17;92.60;101472.13;5294127;28;20025;-68
2022/10/30 08:57:26;;;;;;;18.05;8.18;;;;;;;15.26;92.53;101475.06;5293183;28;20110;-70
2022/10/30 08:59:59;;;;;;;13.18;7.75;;;;;;;15.35;92.47;101469.59;5276021;28;20139;-69
2022/10/30 09:02:30;;;;;;;13.50;8.18;;;;;;;15.35;92.27;101473.22;5292877;28;20025;-69
2022/10/30 09:05:03;;;;;;;10.38;7.00;;;;;;;15.44;92.23;101467.75;5285244;28;20029;-70
2022/10/30 09:07:35;;;;;;;13.27;7.43;;;;;;;15.49;92.00;101459.25;5287798;28;20036;-69
2022/10/30 09:10:06;;;;;;;11.70;7.43;;;;;;;15.57;91.11;101466.97;5288129;28;20031;-69
2022/10/30 09:12:38;;;;;;;11.77;7.68;;;;;;;15.65;90.89;101457.03;5281205;28;20039;-70
2022/10/30 09:15:12;;;;;;;12.57;8.00;;;;;;;15.70;90.16;101454.16;5284406;28;20024;-69
2022/10/30 09:17:43;;;;;;;11.07;7.30;;;;;;;15.76;90.68;101452.09;5282363;28;20074;-69
2022/10/30 09:20:14;;;;;;;9.65;8.07;;;;;;;15.85;90.48;101445.47;5273491;28;20033;-69
2022/10/30 09:22:46;;;;;;;11.73;8.23;;;;;;;15.95;90.29;101443.59;5281361;28;20032;-68
2022/10/30 09:25:17;;;;;;;11.30;7.32;;;;;;;16.00;89.98;101443.47;5287783;28;20443;-69
2022/10/30 09:27:49;;;;;;;14.90;7.05;;;;;;;16.06;89.73;101456.25;5278163;28;20172;-69
2022/10/30 09:30:21;;;;;;;12.95;7.43;;;;;;;16.11;89.88;101449.72;5287191;28;20048;-70
2022/10/30 09:32:54;;;;;;;11.27;7.38;;;;;;;16.12;89.88;101454.16;5275381;28;20021;-70
2022/10/30 09:35:25;;;;;;;14.70;7.82;;;;;;;16.14;89.09;101446.28;5269979;28;20029;-70
2022/10/30 09:37:57;;;;;;;13.50;7.70;;;;;;;16.19;88.59;101454.56;5267580;28;20116;-68
2022/10/30 09:41:05;;;;;;;11.75;6.95;;;;;;;16.24;88.38;101458.06;5275594;28;20047;-67
2022/10/30 09:43:50;;;;;;;12.23;7.22;;;;;;;16.30;87.76;101456.81;5276969;28;20533;-69
2022/10/30 09:46:53;;;;;;;12.03;7.47;;;;;;;16.34;87.99;101456.22;5271141;28;20040;-68
2022/10/30 09:49:38;;;;;;;10.38;7.25;;;;;;;16.34;87.74;101476.63;5270578;28;20043;-68
2022/10/30 09:52:26;;;;;;;13.02;7.20;;;;;;;16.30;87.51;101481.19;5277788;28;20024;-68
2022/10/30 09:55:03;;;;;;;10.60;6.80;;;;;;;16.36;87.46;101487.50;5268872;28;20024;-67
2022/10/30 09:57:57;;;;;;;10.82;7.10;;;;;;;16.39;87.80;101482.09;5281137;28;20032;-67
2022/10/30 10:00:43;;;;;;;14.02;7.55;;;;;;;16.42;87.75;101481.47;5274401;28;20563;-72
2022/10/30 10:03:47;;;;;;;13.07;7.03;;;;;;;16.44;87.54;101479.19;5274921;28;20024;-71
2022/10/30 10:06:20;;;;;;;10.95;7.35;;;;;;;16.43;87.85;101491.53;5264247;28;20029;-69
2022/10/30 10:08:57;;;;;;;14.95;8.98;;;;;;;16.52;87.81;101480.44;5275423;28;20021;-68
2022/10/30 10:11:36;;;;;;;12.82;7.30;;;;;;;16.58;87.33;101467.13;5276437;28;20078;-69
2022/10/30 10:14:25;;;;;;;11.25;7.63;;;;;;;16.64;87.68;101472.31;5277227;28;20055;-69
2022/10/30 10:17:00;;;;;;;12.65;7.95;;;;;;;16.66;87.48;101477.56;5274962;28;20112;-69
2022/10/30 10:20:00;;;;;;;12.02;6.38;;;;;;;16.79;87.01;101473.94;5257243;28;20035;-68
2022/10/30 10:22:31;;;;;;;10.48;7.03;;;;;;;16.83;86.58;101474.97;5278086;28;20098;-68
2022/10/30 10:25:14;;;;;;;11.23;7.53;;;;;;;16.88;86.48;101472.03;5273431;28;20013;-70
2022/10/30 10:28:13;;;;;;;8.43;6.93;;;;;;;16.94;86.52;101467.97;5266461;28;20468;-69
2022/10/30 10:30:59;;;;;;;14.10;8.05;;;;;;;16.99;86.24;101460.59;5277608;28;20387;-68
2022/10/30 10:33:57;;;;;;;12.02;6.82;;;;;;;17.08;84.97;101461.50;5267135;28;20083;-68
2022/10/30 10:36:46;;;;;;;14.15;6.47;;;;;;;17.09;85.50;101457.53;5268202;28;20090;-68
2022/10/30 10:39:36;;;;;;;44.80;38.70;;;;;;;17.14;85.04;101458.22;5273940;28;20029;-69
2022/10/30 10:42:35;;;;;;;32.17;23.63;;;;;;;17.20;84.74;101452.47;5276910;28;20036;-68
2022/10/30 10:45:43;;;;;;;13.50;7.45;;;;;;;17.22;84.30;101448.22;5269573;28;20366;-68
2022/10/30 10:48:44;;;;;;;9.95;7.40;;;;;;;17.22;84.38;101456.63;5197311;28;20042;-69
2022/10/30 10:51:26;;;;;;;12.82;6.72;;;;;;;17.27;84.21;101459.28;5270645;28;20066;-70
2022/10/30 10:54:07;;;;;;;16.75;9.57;;;;;;;17.35;84.04;101454.88;5280685;28;20497;-68
2022/10/30 10:56:42;;;;;;;15.85;14.23;;;;;;;17.44;83.83;101467.00;5262295;28;20022;-67
2022/10/30 10:59:16;;;;;;;12.30;8.97;;;;;;;17.46;83.73;101461.91;5258403;28;20029;-68
2022/10/30 11:01:57;;;;;;;12.30;7.97;;;;;;;17.48;83.78;101461.56;5269847;28;20124;-68
2022/10/30 11:04:38;;;;;;;11.98;6.15;;;;;;;17.47;83.51;101466.34;5271231;28;20303;-68
2022/10/30 11:07:22;;;;;;;11.95;6.63;;;;;;;17.55;83.50;101461.94;5267651;28;20023;-68
2022/10/30 11:09:56;;;;;;;12.80;7.97;;;;;;;17.62;83.78;101450.25;5276078;28;20083;-68
2022/10/30 11:12:35;;;;;;;9.23;6.93;;;;;;;17.68;84.22;101446.97;5271540;28;20024;-69
2022/10/30 11:15:28;;;;;;;11.18;6.45;;;;;;;17.74;83.45;101451.31;5275072;28;20446;-69
2022/10/30 11:18:10;;;;;;;11.98;6.18;;;;;;;17.80;82.91;101440.78;5274711;28;20132;-68
2022/10/30 11:21:07;;;;;;;13.77;6.72;;;;;;;17.89;82.06;101438.00;5268868;28;20067;-68
2022/10/30 11:23:44;;;;;;;9.23;7.28;;;;;;;17.93;81.26;101433.41;5272188;28;20028;-68
2022/10/30 11:26:21;;;;;;;12.55;6.47;;;;;;;17.97;80.29;101440.00;5277205;28;20357;-69
2022/10/30 11:29:01;;;;;;;10.65;5.82;;;;;;;18.03;79.22;101441.53;5269334;28;20419;-68
2022/10/30 11:31:36;;;;;;;11.35;7.25;;;;;;;18.02;79.84;101442.66;5273847;28;20025;-71
2022/10/30 11:34:24;;;;;;;10.02;6.93;;;;;;;18.06;79.57;101445.66;5272844;28;20044;-70
2022/10/30 11:36:58;;;;;;;13.38;6.05;;;;;;;18.10;79.01;101441.88;5274677;28;20024;-71
2022/10/30 11:39:34;;;;;;;17.73;7.28;;;;;;;18.11;78.04;101440.72;5270814;28;20032;-70
2022/10/30 11:42:17;;;;;;;10.23;6.38;;;;;;;18.16;78.47;101442.56;5278303;28;20021;-71
2022/10/30 11:44:50;;;;;;;9.85;6.13;;;;;;;18.22;78.37;101436.44;5270216;28;20362;-72
2022/10/30 11:47:35;;;;;;;8.40;5.80;;;;;;;18.20;78.37;101433.16;5277006;28;20111;-71
2022/10/30 11:50:25;;;;;;;10.40;7.23;;;;;;;18.19;78.78;101431.47;5267579;28;20037;-72
2022/10/30 11:53:29;;;;;;;11.95;6.30;;;;;;;18.21;78.98;101431.16;5275338;28;20489;-72
2022/10/30 11:56:03;;;;;;;11.93;6.20;;;;;;;18.24;78.78;101431.31;5267364;28;20062;-72
2022/10/30 11:58:41;;;;;;;11.05;5.85;;;;;;;18.29;79.09;101432.34;5277933;28;20051;-71
2022/10/30 12:01:21;;;;;;;12.98;6.43;;;;;;;18.31;79.02;101428.03;5268072;28;20051;-71
2022/10/30 12:04:22;;;;;;;10.98;5.75;;;;;;;18.43;79.16;101424.56;5279246;28;20025;-70
2022/10/30 12:07:17;;;;;;;11.55;6.55;;;;;;;18.45;79.05;101430.69;5275490;28;20024;-69
2022/10/30 12:09:49;;;;;;;10.52;6.68;;;;;;;18.42;78.78;101426.56;5264231;28;20454;-68
2022/10/30 12:12:32;;;;;;;8.98;5.72;;;;;;;18.43;79.04;101419.81;5278440;28;20028;-68
2022/10/30 12:15:25;;;;;;;14.45;8.35;;;;;;;18.43;79.32;101419.81;5266675;28;20495;-68
2022/10/30 12:18:05;;;;;;;11.48;5.82;;;;;;;18.40;78.47;101414.81;5266472;28;20041;-68
2022/10/30 12:20:37;;;;;;;10.32;6.03;;;;;;;18.38;78.33;101419.97;5265333;28;20031;-69
2022/10/30 12:23:18;;;;;;;11.55;6.55;;;;;;;18.40;78.95;101414.81;5269674;28;20020;-66
2022/10/30 12:25:52;;;;;;;12.02;6.57;;;;;;;18.39;79.38;101413.19;5267025;28;20098;-66
2022/10/30 12:28:27;;;;;;;13.80;6.78;;;;;;;18.40;79.87;101414.00;5263068;28;20025;-67
2022/10/30 12:31:22;;;;;;;15.17;6.77;;;;;;;18.43;79.74;101410.53;5267963;28;20379;-66
2022/10/30 12:34:04;;;;;;;13.30;7.10;;;;;;;18.53;79.71;101418.63;5279708;28;20028;-66
2022/10/30 12:36:44;;;;;;;8.40;6.07;;;;;;;18.44;79.75;101415.81;5271370;28;20032;-67
2022/10/30 12:39:29;;;;;;;11.57;6.07;;;;;;;18.44;79.72;101403.78;5276326;28;20021;-66
2022/10/30 12:42:15;;;;;;;10.88;7.43;;;;;;;18.52;79.57;101410.56;5280229;28;20090;-66
2022/10/30 12:45:00;;;;;;;15.07;7.13;;;;;;;18.52;79.70;101405.75;5275392;28;20155;-67
2022/10/30 12:47:43;;;;;;;11.18;5.93;;;;;;;18.64;79.78;101403.13;5277438;28;20025;-67
2022/10/30 12:50:25;;;;;;;15.45;6.60;;;;;;;18.73;78.93;101405.09;5281189;28;20112;-66
2022/10/30 12:53:23;;;;;;;11.88;7.60;;;;;;;18.88;79.25;101407.41;5277300;28;20055;-66
2022/10/30 12:56:01;;;;;;;12.32;6.55;;;;;;;18.90;79.40;101405.94;5277914;28;20464;-67
2022/10/30 12:58:40;;;;;;;14.55;6.38;;;;;;;18.90;78.38;101405.09;5273039;28;20078;-66
2022/10/30 13:01:41;;;;;;;12.07;7.28;;;;;;;18.86;77.07;101402.13;5271700;28;20105;-68
2022/10/30 13:04:17;;;;;;;11.10;5.43;;;;;;;18.92;76.41;101397.19;5279789;28;20042;-66
2022/10/30 13:07:02;;;;;;;13.00;6.18;;;;;;;19.00;76.21;101389.88;5282418;28;20032;-67
2022/10/30 13:09:54;;;;;;;9.88;6.03;;;;;;;19.09;75.71;101385.06;5275497;28;20033;-65
2022/10/30 13:12:32;;;;;;;9.73;5.30;;;;;;;19.11;75.46;101388.38;5279571;28;20083;-67
2022/10/30 13:15:13;;;;;;;8.55;5.28;;;;;;;19.07;74.94;101382.59;5276229;28;20021;-67
2022/10/30 13:17:44;;;;;;;12.23;5.53;;;;;;;19.10;74.97;101386.72;5268550;28;20124;-67
2022/10/30 13:20:19;;;;;;;11.95;5.68;;;;;;;19.07;74.51;101387.38;5278790;28;20025;-66
2022/10/30 13:23:14;;;;;;;14.88;6.20;;;;;;;19.06;74.88;101389.38;5268299;28;20024;-66
2022/10/30 13:26:33;;;;;;;9.50;5.28;;;;;;;19.04;73.61;101388.03;5278438;28;20529;-65
2022/10/30 13:29:19;;;;;;;12.95;5.20;;;;;;;19.00;72.80;101396.34;5250202;28;20404;-66
2022/10/30 13:32:04;;;;;;;9.10;5.00;;;;;;;19.02;72.56;101391.22;5276488;28;20040;-66
2022/10/30 13:34:54;;;;;;;10.48;5.00;;;;;;;19.03;72.43;101392.03;5278221;28;20032;-66
2022/10/30 13:37:35;;;;;;;13.02;5.55;;;;;;;19.04;72.69;101397.28;5263486;28;20025;-68
2022/10/30 13:40:40;;;;;;;13.40;8.60;;;;;;;19.03;73.10;101398.47;5271797;28;20036;-67
2022/10/30 13:43:33;;;;;;;13.13;6.28;;;;;;;19.00;72.36;101395.50;5273403;28;20031;-67
2022/10/30 13:46:35;;;;;;;13.02;6.00;;;;;;;18.97;73.07;101391.38;5265144;28;20037;-67
2022/10/30 13:49:26;;;;;;;10.13;5.18;;;;;;;18.96;73.35;101392.53;5274338;28;20111;-67
2022/10/30 13:52:11;;;;;;;10.93;5.63;;;;;;;18.93;73.41;101389.56;5270655;28;20392;-67
2022/10/30 13:54:51;;;;;;;12.10;6.20;;;;;;;18.90;73.76;101393.88;5273471;28;20391;-67
2022/10/30 13:57:45;;;;;;;13.25;5.95;;;;;;;18.91;74.23;101395.50;5281715;28;20069;-66
2022/10/30 14:00:25;;;;;;;9.13;5.57;;;;;;;18.97;73.19;101394.19;5273994;28;20143;-67
2022/10/30 14:03:22;;;;;;;10.63;5.45;;;;;;;19.03;73.28;101387.22;5269426;28;20032;-67
2022/10/30 14:06:15;;;;;;;9.32;5.50;;;;;;;19.11;73.05;101386.38;5266280;28;20050;-66
2022/10/30 14:08:58;;;;;;;9.27;5.47;;;;;;;19.17;72.41;101392.63;5276172;28;20033;-67
2022/10/30 14:11:29;;;;;;;7.50;4.95;;;;;;;19.08;72.05;101394.66;5274837;28;20037;-66
2022/10/30 14:14:24;;;;;;;10.55;5.75;;;;;;;19.11;72.97;101396.78;5275616;28;20029;-66
2022/10/30 14:17:15;;;;;;;10.13;5.75;;;;;;;19.08;72.69;101394.66;5271235;28;20012;-67
2022/10/30 14:20:07;;;;;;;11.48;5.38;;;;;;;19.08;72.95;101401.09;5266180;28;20021;-67
2022/10/30 14:22:39;;;;;;;13.00;6.60;;;;;;;19.03;72.29;101404.09;5280638;28;20024;-65
2022/10/30 14:25:12;;;;;;;11.55;5.55;;;;;;;19.00;72.34;101401.94;5269980;28;20025;-66
2022/10/30 14:27:54;;;;;;;18.17;9.77;;;;;;;19.04;72.05;101422.59;5266837;28;20026;-65
2022/10/30 14:30:27;;;;;;;10.10;5.13;;;;;;;19.01;72.55;101411.19;5274457;28;20094;-65
2022/10/30 14:32:58;;;;;;;11.10;6.20;;;;;;;19.05;71.99;101413.03;5280309;28;20021;-65
2022/10/30 14:35:32;;;;;;;9.77;5.75;;;;;;;19.12;72.16;101412.50;5281168;28;20071;-66
2022/10/30 14:38:07;;;;;;;10.57;5.53;;;;;;;19.16;71.45;101409.84;5267793;28;20379;-66
2022/10/30 14:40:59;;;;;;;10.40;5.40;;;;;;;19.23;71.45;101413.00;5266103;28;20120;-67
2022/10/30 14:44:14;;;;;;;11.32;5.28;;;;;;;19.26;72.01;101413.13;5271594;28;20086;-66
2022/10/30 14:47:11;;;;;;;8.93;5.70;;;;;;;19.18;71.07;101405.56;5204416;28;20037;-67
2022/10/30 14:49:59;;;;;;;10.65;6.75;;;;;;;19.20;71.71;101405.19;5275371;28;20433;-66
2022/10/30 14:52:52;;;;;;;9.45;5.85;;;;;;;19.20;70.56;101405.19;5267791;28;20029;-66
2022/10/30 14:55:57;;;;;;;9.90;5.45;;;;;;;19.21;71.27;101415.31;5281349;28;20078;-66
2022/10/30 14:58:32;;;;;;;12.57;5.50;;;;;;;19.18;71.30;101419.59;5278893;28;20056;-66
2022/10/30 15:01:03;;;;;;;7.68;5.15;;;;;;;19.18;71.36;101415.97;5273707;28;20040;-66
2022/10/30 15:03:50;;;;;;;11.90;5.37;;;;;;;19.21;71.71;101420.94;5279966;28;20058;-66
2022/10/30 15:06:30;;;;;;;9.50;4.38;;;;;;;19.14;71.14;101420.59;5270317;28;20345;-66
2022/10/30 15:09:25;;;;;;;15.35;5.90;;;;;;;19.14;71.46;101426.22;5266369;28;20040;-66
2022/10/30 15:12:21;;;;;;;10.77;5.67;;;;;;;19.07;71.55;101438.81;5274457;28;20074;-66
2022/10/30 15:14:58;;;;;;;11.07;5.10;;;;;;;19.04;71.94;101433.84;5274913;28;20340;-66
2022/10/30 15:17:35;;;;;;;12.48;5.32;;;;;;;18.99;72.24;101448.06;5280382;28;20029;-67
2022/10/30 15:20:14;;;;;;;9.80;5.50;;;;;;;18.96;73.06;101448.72;5265847;28;20029;-67
2022/10/30 15:22:51;;;;;;;8.73;5.57;;;;;;;18.91;73.56;101443.28;5273355;28;20032;-66
2022/10/30 15:25:28;;;;;;;12.48;6.00;;;;;;;18.89;73.30;101454.03;5280539;28;20383;-66
2022/10/30 15:28:00;;;;;;;7.40;4.93;;;;;;;18.84;73.96;101451.38;5275609;28;20162;-66
2022/10/30 15:30:31;;;;;;;10.02;5.97;;;;;;;18.78;73.68;101458.34;5278001;28;20016;-66
2022/10/30 15:33:02;;;;;;;8.95;5.50;;;;;;;18.74;74.31;101463.78;5280635;28;20471;-66
2022/10/30 15:35:34;;;;;;;11.57;5.07;;;;;;;18.65;75.09;101472.19;5271257;28;20025;-66
2022/10/30 15:38:08;;;;;;;9.80;5.40;;;;;;;18.63;75.25;101480.09;5268348;28;20044;-66
2022/10/30 15:40:39;;;;;;;8.77;5.03;;;;;;;18.57;75.41;101487.06;5277229;28;20029;-66
2022/10/30 15:43:15;;;;;;;10.15;6.20;;;;;;;18.53;76.16;101486.03;5275278;28;20053;-66
2022/10/30 15:45:49;;;;;;;11.27;5.82;;;;;;;18.47;76.57;101492.97;5276923;28;20026;-66
2022/10/30 15:48:26;;;;;;;13.60;5.93;;;;;;;18.46;76.67;101496.94;5269623;28;20028;-66
2022/10/30 15:51:01;;;;;;;13.00;6.25;;;;;;;18.33;77.24;101498.75;5280256;28;20036;-67
2022/10/30 15:53:39;;;;;;;15.25;6.70;;;;;;;18.37;77.13;101508.16;5269556;28;20076;-66
2022/10/30 15:56:29;;;;;;;10.35;6.40;;;;;;;18.35;77.71;101518.06;5266842;28;20076;-66
2022/10/30 15:59:06;;;;;;;13.93;6.90;;;;;;;18.27;78.13;101518.88;5267029;28;20078;-67
2022/10/30 16:01:48;;;;;;;10.23;5.80;;;;;;;18.21;78.87;101519.00;5271818;28;20048;-66
2022/10/30 16:04:23;;;;;;;16.10;7.05;;;;;;;18.16;79.31;101535.19;5276448;28;20025;-67
2022/10/30 16:06:57;;;;;;;9.45;6.35;;;;;;;18.12;79.84;101534.97;5273761;28;20428;-66
2022/10/30 16:09:28;;;;;;;11.15;7.13;;;;;;;18.05;80.09;101548.69;5270424;28;20036;-67
2022/10/30 16:12:00;;;;;;;11.15;7.00;;;;;;;18.04;80.54;101549.81;5274549;28;20400;-67
2022/10/30 16:14:35;;;;;;;12.43;6.38;;;;;;;17.97;81.23;101553.09;5268987;28;20080;-67
2022/10/30 16:17:09;;;;;;;;;;;;;;;18.05;80.62;101557.09;5269490;28;20029;-67
2022/10/30 16:19:46;;;;;;;14.02;7.53;;;;;;;17.92;81.98;101556.06;5264620;28;19925;-68
2022/10/30 16:22:25;;;;;;;10.75;7.03;;;;;;;17.88;82.75;101555.03;5273642;28;20037;-68
2022/10/30 16:24:57;;;;;;;13.98;7.20;;;;;;;17.86;83.00;101556.50;5279976;28;20064;-67
2022/10/30 16:27:28;;;;;;;14.27;7.88;;;;;;;17.88;82.89;101565.44;5281843;28;20048;-68
2022/10/30 16:30:02;;;;;;;15.35;8.13;;;;;;;17.81;83.43;101561.09;5259885;28;20044;-67
2022/10/30 16:32:33;;;;;;;24.02;16.67;;;;;;;17.75;84.24;101565.16;5280369;28;20037;-67
2022/10/30 16:35:06;;;;;;;13.13;8.52;;;;;;;17.76;84.63;101564.00;5276444;28;20016;-67
2022/10/30 16:37:39;;;;;;;14.95;9.70;;;;;;;17.71;85.44;101572.53;5273124;28;20094;-67
2022/10/30 16:40:14;;;;;;;13.00;7.72;;;;;;;17.65;85.73;101564.59;5280663;28;20079;-67
2022/10/30 16:42:51;;;;;;;10.88;8.25;;;;;;;17.69;86.21;101569.25;5280174;28;20020;-67
2022/10/30 16:45:22;;;;;;;14.18;8.25;;;;;;;17.63;86.41;101569.69;5274960;28;20491;-68
2022/10/30 16:48:01;;;;;;;15.10;8.65;;;;;;;17.50;87.58;101571.44;5277547;28;20071;-68
2022/10/30 16:50:34;;;;;;;12.93;8.32;;;;;;;17.44;87.82;101579.16;5273924;28;20032;-68
2022/10/30 16:53:16;;;;;;;12.77;8.88;;;;;;;17.44;87.38;101584.75;5282446;28;20025;-67
2022/10/30 16:55:48;;;;;;;12.27;6.28;;;;;;;17.35;87.67;101570.66;5271927;28;20056;-68
2022/10/30 16:58:22;;;;;;;9.65;7.00;;;;;;;17.33;87.70;101564.56;5273073;28;20622;-67
2022/10/30 17:01:01;;;;;;;9.82;6.93;;;;;;;17.39;87.67;101576.47;5278668;28;20049;-67
2022/10/30 17:03:37;;;;;;;16.40;10.32;;;;;;;17.28;88.14;101595.50;5274171;28;20042;-67
2022/10/30 17:06:44;;;;;;;10.32;6.22;;;;;;;17.31;88.22;101592.06;5283318;28;20032;-67
2022/10/30 17:09:25;;;;;;;7.80;6.05;;;;;;;17.27;88.10;101599.44;5271544;28;20468;-67
2022/10/30 17:12:26;;;;;;;13.57;6.32;;;;;;;17.29;88.20;101602.78;5283396;28;20032;-67
2022/10/30 17:15:12;;;;;;;11.95;5.95;;;;;;;17.31;88.07;101592.06;5264769;28;20499;-67
2022/10/30 17:18:15;;;;;;;9.77;5.95;;;;;;;17.29;87.66;101577.53;5279720;28;20043;-66
2022/10/30 17:21:05;;;;;;;8.68;5.70;;;;;;;17.25;87.78;101578.47;5274911;28;20020;-66
2022/10/30 17:23:42;;;;;;;9.18;5.40;;;;;;;17.16;87.55;101581.22;5273823;28;20503;-66
2022/10/30 17:26:14;;;;;;;8.60;6.05;;;;;;;17.20;87.78;101593.44;5278568;28;20378;-66
2022/10/30 17:28:46;;;;;;;22.95;20.65;;;;;;;17.27;87.47;101588.22;5274712;28;20028;-66
2022/10/30 17:31:34;;;;;;;10.02;8.27;;;;;;;17.24;87.44;101591.69;5277140;28;20025;-66
